sensor_id;sensor_type;location;lat;lon;timestamp;pressure;altitude;pressure_sealevel;temperature;humidity
46303;BME280;32029;51.358;5.628;2023-01-29T00:00:47;102794.50;;;0.15;77.28
46303;BME280;32029;51.358;5.628;2023-01-29T00:03:32;102772.38;;;0.07;77.36
46303;BME280;32029;51.358;5.628;2023-01-29T00:06:32;102820.56;;;0.35;77.32
46303;BME280;32029;51.358;5.628;2023-01-29T00:09:20;102758.09;;;0.05;77.51
46303;BME280;32029;51.358;5.628;2023-01-29T00:12:12;102746.31;;;-0.13;77.89
46303;BME280;32029;51.358;5.628;2023-01-29T00:15:02;102801.38;;;0.22;78.05
46303;BME280;32029;51.358;5.628;2023-01-29T00:17:50;102815.50;;;0.27;78.40
46303;BME280;32029;51.358;5.628;2023-01-29T00:20:38;102753.13;;;-0.05;78.20
46303;BME280;32029;51.358;5.628;2023-01-29T00:23:26;102820.50;;;0.36;78.18
46303;BME280;32029;51.358;5.628;2023-01-29T00:26:15;102721.09;;;-0.12;77.83
46303;BME280;32029;51.358;5.628;2023-01-29T00:29:06;102798.81;;;0.38;78.04
46303;BME280;32029;51.358;5.628;2023-01-29T00:31:58;102737.00;;;-0.06;77.60
46303;BME280;32029;51.358;5.628;2023-01-29T00:34:47;102789.31;;;0.29;77.60
46303;BME280;32029;51.358;5.628;2023-01-29T00:37:36;102767.66;;;0.12;77.64
46303;BME280;32029;51.358;5.628;2023-01-29T00:40:26;102764.75;;;0.16;77.61
46303;BME280;32029;51.358;5.628;2023-01-29T00:43:32;102764.16;;;0.10;77.34
46303;BME280;32029;51.358;5.628;2023-01-29T00:46:36;102805.09;;;0.38;77.55
46303;BME280;32029;51.358;5.628;2023-01-29T00:49:24;102803.25;;;0.39;77.73
46303;BME280;32029;51.358;5.628;2023-01-29T00:52:14;102786.50;;;0.32;77.33
46303;BME280;32029;51.358;5.628;2023-01-29T00:55:09;102738.09;;;0.09;77.67
46303;BME280;32029;51.358;5.628;2023-01-29T00:57:57;102786.03;;;0.41;77.35
46303;BME280;32029;51.358;5.628;2023-01-29T01:00:44;102750.19;;;0.19;77.18
46303;BME280;32029;51.358;5.628;2023-01-29T01:03:32;102722.84;;;0.08;77.07
46303;BME280;32029;51.358;5.628;2023-01-29T01:06:32;102765.75;;;0.33;77.12
46303;BME280;32029;51.358;5.628;2023-01-29T01:09:21;102762.69;;;0.40;77.34
46303;BME280;32029;51.358;5.628;2023-01-29T01:12:24;102752.31;;;0.31;77.65
46303;BME280;32029;51.358;5.628;2023-01-29T01:15:16;102748.69;;;0.32;77.49
46303;BME280;32029;51.358;5.628;2023-01-29T01:18:04;102748.69;;;0.32;77.42
46303;BME280;32029;51.358;5.628;2023-01-29T01:20:56;102731.00;;;0.25;77.50
46303;BME280;32029;51.358;5.628;2023-01-29T01:23:45;102689.75;;;0.04;77.54
46303;BME280;32029;51.358;5.628;2023-01-29T01:26:32;102738.00;;;0.29;77.73
46303;BME280;32029;51.358;5.628;2023-01-29T01:29:21;102761.09;;;0.36;77.75
46303;BME280;32029;51.358;5.628;2023-01-29T01:32:11;102762.97;;;0.34;77.90
46303;BME280;32029;51.358;5.628;2023-01-29T01:34:57;102763.94;;;0.33;77.80
46303;BME280;32029;51.358;5.628;2023-01-29T01:37:43;102774.72;;;0.33;77.93
46303;BME280;32029;51.358;5.628;2023-01-29T01:40:28;102782.81;;;0.33;78.01
46303;BME280;32029;51.358;5.628;2023-01-29T01:43:20;102778.25;;;0.35;77.76
46303;BME280;32029;51.358;5.628;2023-01-29T01:46:07;102762.22;;;0.31;78.11
46303;BME280;32029;51.358;5.628;2023-01-29T01:49:11;102775.22;;;0.41;78.26
46303;BME280;32029;51.358;5.628;2023-01-29T01:52:08;102784.16;;;0.43;78.22
46303;BME280;32029;51.358;5.628;2023-01-29T01:54:56;102782.22;;;0.45;78.39
46303;BME280;32029;51.358;5.628;2023-01-29T01:57:52;102789.22;;;0.49;78.63
46303;BME280;32029;51.358;5.628;2023-01-29T02:00:47;102742.47;;;0.30;78.77
46303;BME280;32029;51.358;5.628;2023-01-29T02:03:46;102745.44;;;0.43;79.08
46303;BME280;32029;51.358;5.628;2023-01-29T02:06:51;102771.50;;;0.63;78.95
46303;BME280;32029;51.358;5.628;2023-01-29T02:10:12;102717.88;;;0.36;78.72
46303;BME280;32029;51.358;5.628;2023-01-29T02:13:06;102777.44;;;0.69;78.49
46303;BME280;32029;51.358;5.628;2023-01-29T02:16:01;102776.44;;;0.72;78.97
46303;BME280;32029;51.358;5.628;2023-01-29T02:18:48;102779.91;;;0.74;78.91
46303;BME280;32029;51.358;5.628;2023-01-29T02:35:30;102793.75;;;0.68;79.56
46303;BME280;32029;51.358;5.628;2023-01-29T02:43:58;102804.66;;;0.66;79.54
46303;BME280;32029;51.358;5.628;2023-01-29T02:49:54;102785.78;;;0.65;79.70
46303;BME280;32029;51.358;5.628;2023-01-29T02:53:28;102783.09;;;0.65;79.57
46303;BME280;32029;51.358;5.628;2023-01-29T02:56:09;102746.16;;;0.46;79.26
46303;BME280;32029;51.358;5.628;2023-01-29T02:59:11;102747.13;;;0.45;79.73
46303;BME280;32029;51.358;5.628;2023-01-29T03:02:08;102734.22;;;0.33;79.32
46303;BME280;32029;51.358;5.628;2023-01-29T03:05:02;102771.00;;;0.55;79.44
46303;BME280;32029;51.358;5.628;2023-01-29T03:07:59;102724.66;;;0.26;79.71
46303;BME280;32029;51.358;5.628;2023-01-29T03:10:56;102769.66;;;0.63;79.67
46303;BME280;32029;51.358;5.628;2023-01-29T03:17:14;102775.34;;;0.57;79.83
46303;BME280;32029;51.358;5.628;2023-01-29T03:20:07;102732.34;;;0.35;80.10
46303;BME280;32029;51.358;5.628;2023-01-29T03:23:09;102766.53;;;0.54;80.12
46303;BME280;32029;51.358;5.628;2023-01-29T03:26:19;102778.69;;;0.62;79.90
46303;BME280;32029;51.358;5.628;2023-01-29T03:29:24;102767.25;;;0.57;79.99
46303;BME280;32029;51.358;5.628;2023-01-29T03:32:30;102760.69;;;0.63;79.94
46303;BME280;32029;51.358;5.628;2023-01-29T03:35:22;102770.53;;;0.64;80.08
46303;BME280;32029;51.358;5.628;2023-01-29T03:38:19;102764.13;;;0.66;79.85
46303;BME280;32029;51.358;5.628;2023-01-29T03:41:16;102755.03;;;0.67;79.83
46303;BME280;32029;51.358;5.628;2023-01-29T03:44:29;102673.81;;;0.17;79.97
46303;BME280;32029;51.358;5.628;2023-01-29T03:48:06;102723.13;;;0.39;79.87
46303;BME280;32029;51.358;5.628;2023-01-29T03:53:44;102705.88;;;0.42;79.87
46303;BME280;32029;51.358;5.628;2023-01-29T03:56:38;102757.59;;;0.70;79.94
46303;BME280;32029;51.358;5.628;2023-01-29T04:02:41;102663.66;;;0.22;79.84
46303;BME280;32029;51.358;5.628;2023-01-29T04:05:40;102740.81;;;0.64;79.78
46303;BME280;32029;51.358;5.628;2023-01-29T04:08:33;102717.13;;;0.52;79.76
46303;BME280;32029;51.358;5.628;2023-01-29T04:11:27;102740.56;;;0.68;79.85
46303;BME280;32029;51.358;5.628;2023-01-29T04:14:18;102749.50;;;0.70;79.77
46303;BME280;32029;51.358;5.628;2023-01-29T04:17:14;102744.09;;;0.70;79.86
46303;BME280;32029;51.358;5.628;2023-01-29T04:20:06;102738.59;;;0.72;79.87
46303;BME280;32029;51.358;5.628;2023-01-29T04:22:55;102716.34;;;0.67;80.04
46303;BME280;32029;51.358;5.628;2023-01-29T04:25:52;102691.84;;;0.53;80.13
46303;BME280;32029;51.358;5.628;2023-01-29T04:29:14;102724.59;;;0.81;80.41
46303;BME280;32029;51.358;5.628;2023-01-29T04:57:21;102719.88;;;1.21;80.95
46303;BME280;32029;51.358;5.628;2023-01-29T05:00:26;102706.00;;;1.27;80.98
46303;BME280;32029;51.358;5.628;2023-01-29T05:03:06;102629.94;;;0.83;80.78
46303;BME280;32029;51.358;5.628;2023-01-29T05:05:39;102706.06;;;1.43;81.36
46303;BME280;32029;51.358;5.628;2023-01-29T05:08:08;102696.66;;;1.50;81.38
46303;BME280;32029;51.358;5.628;2023-01-29T05:10:37;102671.13;;;1.38;81.09
46303;BME280;32029;51.358;5.628;2023-01-29T05:13:05;102688.84;;;1.61;81.08
46303;BME280;32029;51.358;5.628;2023-01-29T05:15:47;102681.41;;;1.65;81.15
46303;BME280;32029;51.358;5.628;2023-01-29T05:18:15;102676.78;;;1.67;80.91
46303;BME280;32029;51.358;5.628;2023-01-29T05:20:42;102665.78;;;1.70;81.07
46303;BME280;32029;51.358;5.628;2023-01-29T05:23:16;102619.56;;;1.41;81.10
46303;BME280;32029;51.358;5.628;2023-01-29T05:25:43;102634.16;;;1.55;80.79
46303;BME280;32029;51.358;5.628;2023-01-29T05:28:10;102679.34;;;1.86;80.80
46303;BME280;32029;51.358;5.628;2023-01-29T05:30:44;102672.09;;;1.86;80.60
46303;BME280;32029;51.358;5.628;2023-01-29T05:33:16;102677.78;;;1.82;80.75
46303;BME280;32029;51.358;5.628;2023-01-29T05:35:43;102682.31;;;1.81;80.97
46303;BME280;32029;51.358;5.628;2023-01-29T05:38:09;102680.13;;;1.72;81.03
46303;BME280;32029;51.358;5.628;2023-01-29T05:40:36;102684.16;;;1.81;81.04
46303;BME280;32029;51.358;5.628;2023-01-29T05:43:18;102642.72;;;1.63;81.32
46303;BME280;32029;51.358;5.628;2023-01-29T05:45:55;102658.66;;;1.85;81.31
46303;BME280;32029;51.358;5.628;2023-01-29T05:48:22;102661.91;;;1.91;81.34
46303;BME280;32029;51.358;5.628;2023-01-29T05:50:48;102659.00;;;1.94;81.82
46303;BME280;32029;51.358;5.628;2023-01-29T05:53:14;102675.69;;;2.03;81.81
46303;BME280;32029;51.358;5.628;2023-01-29T05:55:46;102676.31;;;2.08;81.39
46303;BME280;32029;51.358;5.628;2023-01-29T05:58:12;102623.28;;;1.72;81.48
46303;BME280;32029;51.358;5.628;2023-01-29T06:00:39;102679.53;;;1.99;81.87
46303;BME280;32029;51.358;5.628;2023-01-29T06:03:05;102636.28;;;1.65;81.89
46303;BME280;32029;51.358;5.628;2023-01-29T06:05:31;102683.03;;;2.01;82.17
46303;BME280;32029;51.358;5.628;2023-01-29T06:07:57;102671.22;;;2.02;82.07
46303;BME280;32029;51.358;5.628;2023-01-29T06:10:23;102697.44;;;2.17;82.01
46303;BME280;32029;51.358;5.628;2023-01-29T06:12:49;102697.88;;;2.25;82.04
46303;BME280;32029;51.358;5.628;2023-01-29T06:15:15;102708.38;;;2.31;81.78
46303;BME280;32029;51.358;5.628;2023-01-29T06:17:42;102650.38;;;2.04;81.60
46303;BME280;32029;51.358;5.628;2023-01-29T06:20:09;102660.38;;;2.17;81.64
46303;BME280;32029;51.358;5.628;2023-01-29T06:22:35;102707.22;;;2.51;81.70
46303;BME280;32029;51.358;5.628;2023-01-29T06:25:01;102634.38;;;2.15;81.65
46303;BME280;32029;51.358;5.628;2023-01-29T06:27:31;102638.28;;;2.25;81.23
46303;BME280;32029;51.358;5.628;2023-01-29T06:29:57;102660.56;;;2.46;81.33
46303;BME280;32029;51.358;5.628;2023-01-29T06:32:23;102689.19;;;2.66;81.12
46303;BME280;32029;51.358;5.628;2023-01-29T06:34:49;102648.75;;;2.47;81.07
46303;BME280;32029;51.358;5.628;2023-01-29T06:37:15;102599.16;;;2.15;80.49
46303;BME280;32029;51.358;5.628;2023-01-29T06:39:42;102709.00;;;2.82;80.81
46303;BME280;32029;51.358;5.628;2023-01-29T06:42:09;102694.13;;;2.89;81.14
46303;BME280;32029;51.358;5.628;2023-01-29T06:44:35;102656.31;;;2.86;80.63
46303;BME280;32029;51.358;5.628;2023-01-29T06:47:02;102581.59;;;2.52;80.63
46303;BME280;32029;51.358;5.628;2023-01-29T06:49:28;102620.38;;;2.83;80.71
46303;BME280;32029;51.358;5.628;2023-01-29T06:51:57;102657.53;;;3.11;80.65
46303;BME280;32029;51.358;5.628;2023-01-29T06:54:23;102664.34;;;3.18;80.55
46303;BME280;32029;51.358;5.628;2023-01-29T06:56:50;102664.34;;;3.18;80.28
46303;BME280;32029;51.358;5.628;2023-01-29T06:59:16;102671.50;;;3.19;80.28
46303;BME280;32029;51.358;5.628;2023-01-29T07:01:44;102620.50;;;2.95;80.00
46303;BME280;32029;51.358;5.628;2023-01-29T07:04:10;102643.50;;;3.18;80.14
46303;BME280;32029;51.358;5.628;2023-01-29T07:06:36;102654.44;;;3.31;79.98
46303;BME280;32029;51.358;5.628;2023-01-29T07:09:03;102652.53;;;3.33;80.19
46303;BME280;32029;51.358;5.628;2023-01-29T07:11:29;102622.47;;;3.22;79.79
46303;BME280;32029;51.358;5.628;2023-01-29T07:13:56;102645.63;;;3.42;79.63
46303;BME280;32029;51.358;5.628;2023-01-29T07:16:22;102650.19;;;3.41;79.55
46303;BME280;32029;51.358;5.628;2023-01-29T07:18:48;102642.44;;;3.35;79.20
46303;BME280;32029;51.358;5.628;2023-01-29T07:21:14;102627.13;;;3.20;79.83
46303;BME280;32029;51.358;5.628;2023-01-29T07:23:40;102607.16;;;3.07;79.96
46303;BME280;32029;51.358;5.628;2023-01-29T07:26:07;102618.56;;;3.12;79.90
46303;BME280;32029;51.358;5.628;2023-01-29T07:28:36;102663.09;;;3.38;79.89
46303;BME280;32029;51.358;5.628;2023-01-29T07:31:04;102595.16;;;2.97;79.70
46303;BME280;32029;51.358;5.628;2023-01-29T07:33:32;102625.16;;;3.08;79.80
46303;BME280;32029;51.358;5.628;2023-01-29T07:35:58;102655.06;;;3.36;79.75
46303;BME280;32029;51.358;5.628;2023-01-29T07:38:24;102651.94;;;3.42;79.75
46303;BME280;32029;51.358;5.628;2023-01-29T07:40:52;102595.94;;;3.13;79.97
46303;BME280;32029;51.358;5.628;2023-01-29T07:43:19;102660.09;;;3.57;79.51
46303;BME280;32029;51.358;5.628;2023-01-29T07:45:45;102635.47;;;3.46;79.43
46303;BME280;32029;51.358;5.628;2023-01-29T07:48:11;102663.06;;;3.66;79.12
46303;BME280;32029;51.358;5.628;2023-01-29T07:50:38;102638.06;;;3.61;79.19
46303;BME280;32029;51.358;5.628;2023-01-29T07:53:05;102642.03;;;3.70;79.22
46303;BME280;32029;51.358;5.628;2023-01-29T07:55:32;102643.50;;;3.76;79.27
46303;BME280;32029;51.358;5.628;2023-01-29T07:57:59;102598.81;;;3.53;79.02
46303;BME280;32029;51.358;5.628;2023-01-29T08:00:26;102605.00;;;3.69;79.03
46303;BME280;32029;51.358;5.628;2023-01-29T08:02:52;102646.84;;;3.93;79.07
46303;BME280;32029;51.358;5.628;2023-01-29T08:05:19;102652.66;;;4.02;79.25
46303;BME280;32029;51.358;5.628;2023-01-29T08:07:45;102594.69;;;3.74;78.42
46303;BME280;32029;51.358;5.628;2023-01-29T08:10:11;102595.88;;;3.70;78.58
46303;BME280;32029;51.358;5.628;2023-01-29T08:12:37;102535.59;;;3.51;78.65
46303;BME280;32029;51.358;5.628;2023-01-29T08:15:03;102630.88;;;4.16;78.43
46303;BME280;32029;51.358;5.628;2023-01-29T08:17:29;102586.06;;;3.82;78.36
46303;BME280;32029;51.358;5.628;2023-01-29T08:19:55;102604.94;;;3.98;78.20
46303;BME280;32029;51.358;5.628;2023-01-29T08:22:22;102621.31;;;4.10;78.06
46303;BME280;32029;51.358;5.628;2023-01-29T08:24:49;102622.84;;;4.14;77.97
46303;BME280;32029;51.358;5.628;2023-01-29T08:27:15;102641.41;;;4.35;77.76
46303;BME280;32029;51.358;5.628;2023-01-29T08:29:41;102513.19;;;3.61;77.28
46303;BME280;32029;51.358;5.628;2023-01-29T08:32:10;102617.47;;;4.27;77.56
46303;BME280;32029;51.358;5.628;2023-01-29T08:34:37;102638.38;;;4.39;77.49
46303;BME280;32029;51.358;5.628;2023-01-29T08:37:04;102588.59;;;4.12;77.15
46303;BME280;32029;51.358;5.628;2023-01-29T08:39:30;102620.72;;;4.32;77.45
46303;BME280;32029;51.358;5.628;2023-01-29T08:41:57;102630.03;;;4.42;77.16
46303;BME280;32029;51.358;5.628;2023-01-29T08:44:24;102534.94;;;3.88;77.65
46303;BME280;32029;51.358;5.628;2023-01-29T08:46:50;102587.56;;;4.27;77.85
46303;BME280;32029;51.358;5.628;2023-01-29T08:49:16;102574.81;;;4.15;77.01
46303;BME280;32029;51.358;5.628;2023-01-29T08:51:44;102582.09;;;4.14;77.30
46303;BME280;32029;51.358;5.628;2023-01-29T08:54:10;102590.91;;;4.18;77.39
46303;BME280;32029;51.358;5.628;2023-01-29T08:56:37;102585.47;;;4.18;77.42
46303;BME280;32029;51.358;5.628;2023-01-29T08:59:03;102611.50;;;4.35;77.67
46303;BME280;32029;51.358;5.628;2023-01-29T09:01:29;102592.13;;;4.27;77.99
46303;BME280;32029;51.358;5.628;2023-01-29T09:03:55;102577.69;;;4.26;77.72
46303;BME280;32029;51.358;5.628;2023-01-29T09:06:21;102552.63;;;4.21;77.49
46303;BME280;32029;51.358;5.628;2023-01-29T09:08:48;102601.44;;;4.50;77.78
46303;BME280;32029;51.358;5.628;2023-01-29T09:11:15;102594.28;;;4.49;77.22
46303;BME280;32029;51.358;5.628;2023-01-29T09:13:41;102604.06;;;4.64;77.39
46303;BME280;32029;51.358;5.628;2023-01-29T09:16:08;102620.31;;;4.78;77.16
46303;BME280;32029;51.358;5.628;2023-01-29T09:18:35;102606.50;;;4.69;76.48
46303;BME280;32029;51.358;5.628;2023-01-29T09:21:02;102614.13;;;4.76;77.09
46303;BME280;32029;51.358;5.628;2023-01-29T09:23:29;102608.25;;;4.82;77.07
46303;BME280;32029;51.358;5.628;2023-01-29T09:25:56;102566.00;;;4.64;76.67
46303;BME280;32029;51.358;5.628;2023-01-29T09:28:24;102561.34;;;4.53;76.83
46303;BME280;32029;51.358;5.628;2023-01-29T09:30:51;102571.16;;;4.69;76.70
46303;BME280;32029;51.358;5.628;2023-01-29T09:33:17;102611.88;;;4.96;76.57
46303;BME280;32029;51.358;5.628;2023-01-29T09:35:44;102607.19;;;4.98;76.34
46303;BME280;32029;51.358;5.628;2023-01-29T09:38:13;102598.16;;;4.97;75.86
46303;BME280;32029;51.358;5.628;2023-01-29T09:40:59;102600.22;;;4.94;76.14
46303;BME280;32029;51.358;5.628;2023-01-29T09:43:40;102541.97;;;4.58;75.71
46303;BME280;32029;51.358;5.628;2023-01-29T09:46:27;102593.03;;;4.93;76.04
46303;BME280;32029;51.358;5.628;2023-01-29T09:49:26;102556.03;;;4.77;75.90
46303;BME280;32029;51.358;5.628;2023-01-29T09:52:00;102587.38;;;4.96;75.49
46303;BME280;32029;51.358;5.628;2023-01-29T09:56:57;102605.00;;;5.03;76.03
46303;BME280;32029;51.358;5.628;2023-01-29T09:59:26;102590.84;;;4.98;75.89
46303;BME280;32029;51.358;5.628;2023-01-29T10:07:32;102595.78;;;5.31;75.05
46303;BME280;32029;51.358;5.628;2023-01-29T10:10:33;102594.66;;;5.33;75.05
46303;BME280;32029;51.358;5.628;2023-01-29T10:13:05;102586.28;;;5.36;75.21
46303;BME280;32029;51.358;5.628;2023-01-29T10:16:05;102597.94;;;5.38;74.31
46303;BME280;32029;51.358;5.628;2023-01-29T10:18:58;102591.50;;;5.39;74.98
46303;BME280;32029;51.358;5.628;2023-01-29T10:21:53;102593.75;;;5.46;74.74
46303;BME280;32029;51.358;5.628;2023-01-29T10:25:02;102597.47;;;5.45;74.58
46303;BME280;32029;51.358;5.628;2023-01-29T10:27:33;102602.06;;;5.44;73.92
46303;BME280;32029;51.358;5.628;2023-01-29T10:30:07;102570.38;;;5.18;74.18
46303;BME280;32029;51.358;5.628;2023-01-29T10:32:38;102562.44;;;5.14;74.48
46303;BME280;32029;51.358;5.628;2023-01-29T10:35:22;102593.03;;;5.44;74.32
46303;BME280;32029;51.358;5.628;2023-01-29T10:37:53;102575.38;;;5.36;74.41
46303;BME280;32029;51.358;5.628;2023-01-29T10:43:31;102585.59;;;5.58;74.21
46303;BME280;32029;51.358;5.628;2023-01-29T10:52:44;102577.97;;;5.38;74.20
46303;BME280;32029;51.358;5.628;2023-01-29T10:56:05;102587.66;;;5.42;74.66
46303;BME280;32029;51.358;5.628;2023-01-29T10:59:06;102579.72;;;5.52;74.60
46303;BME280;32029;51.358;5.628;2023-01-29T11:01:56;102563.81;;;5.46;74.02
46303;BME280;32029;51.358;5.628;2023-01-29T11:04:42;102522.47;;;5.28;74.70
46303;BME280;32029;51.358;5.628;2023-01-29T11:07:25;102484.16;;;5.18;74.82
46303;BME280;32029;51.358;5.628;2023-01-29T11:10:20;102559.13;;;5.84;74.47
46303;BME280;32029;51.358;5.628;2023-01-29T11:13:15;102539.09;;;5.85;73.50
46303;BME280;32029;51.358;5.628;2023-01-29T11:15:53;102553.78;;;5.96;73.33
46303;BME280;32029;51.358;5.628;2023-01-29T11:18:19;102494.69;;;5.72;73.46
46303;BME280;32029;51.358;5.628;2023-01-29T11:20:59;102494.00;;;5.81;72.54
46303;BME280;32029;51.358;5.628;2023-01-29T11:23:29;102500.91;;;5.74;73.06
46303;BME280;32029;51.358;5.628;2023-01-29T11:25:57;102526.31;;;5.99;72.88
46303;BME280;32029;51.358;5.628;2023-01-29T11:28:42;102519.22;;;5.96;73.18
46303;BME280;32029;51.358;5.628;2023-01-29T11:31:24;102439.56;;;5.45;72.43
46303;BME280;32029;51.358;5.628;2023-01-29T11:33:53;102483.34;;;5.78;72.74
46303;BME280;32029;51.358;5.628;2023-01-29T11:36:30;102517.44;;;6.08;72.43
46303;BME280;32029;51.358;5.628;2023-01-29T11:39:15;102488.72;;;5.91;72.51
46303;BME280;32029;51.358;5.628;2023-01-29T11:41:48;102455.22;;;5.78;72.46
46303;BME280;32029;51.358;5.628;2023-01-29T11:44:25;102426.53;;;5.61;72.88
46303;BME280;32029;51.358;5.628;2023-01-29T11:46:53;102435.63;;;5.73;72.86
46303;BME280;32029;51.358;5.628;2023-01-29T11:49:32;102380.75;;;5.42;72.39
46303;BME280;32029;51.358;5.628;2023-01-29T11:52:03;102455.47;;;5.99;72.49
46303;BME280;32029;51.358;5.628;2023-01-29T11:55:25;102411.63;;;5.78;72.17
46303;BME280;32029;51.358;5.628;2023-01-29T12:03:51;102447.13;;;6.24;71.84
46303;BME280;32029;51.358;5.628;2023-01-29T12:06:22;102402.97;;;6.08;71.91
46303;BME280;32029;51.358;5.628;2023-01-29T12:08:58;102379.66;;;6.04;72.16
46303;BME280;32029;51.358;5.628;2023-01-29T12:11:30;102393.06;;;6.07;71.71
46303;BME280;32029;51.358;5.628;2023-01-29T12:13:59;102314.66;;;5.75;72.21
46303;BME280;32029;51.358;5.628;2023-01-29T12:16:38;102378.63;;;6.29;71.92
46303;BME280;32029;51.358;5.628;2023-01-29T12:19:15;102393.88;;;6.54;72.30
46303;BME280;32029;51.358;5.628;2023-01-29T12:21:50;102396.38;;;6.68;72.00
46303;BME280;32029;51.358;5.628;2023-01-29T12:24:29;102384.59;;;6.79;71.37
46303;BME280;32029;51.358;5.628;2023-01-29T12:27:06;102372.06;;;6.87;70.63
46303;BME280;32029;51.358;5.628;2023-01-29T12:40:36;102340.31;;;6.86;70.08
46303;BME280;32029;51.358;5.628;2023-01-29T12:43:17;102303.50;;;6.58;69.97
46303;BME280;32029;51.358;5.628;2023-01-29T12:45:48;102332.13;;;6.75;70.13
46303;BME280;32029;51.358;5.628;2023-01-29T12:48:26;102277.84;;;6.38;70.23
46303;BME280;32029;51.358;5.628;2023-01-29T12:51:03;102333.84;;;6.76;69.42
46303;BME280;32029;51.358;5.628;2023-01-29T12:56:37;102344.53;;;6.57;70.34
46303;BME280;32029;51.358;5.628;2023-01-29T13:01:49;102243.63;;;5.78;70.60
46303;BME280;32029;51.358;5.628;2023-01-29T13:04:31;102330.78;;;6.36;70.84
46303;BME280;32029;51.358;5.628;2023-01-29T13:07:09;102284.81;;;6.09;70.61
46303;BME280;32029;51.358;5.628;2023-01-29T13:09:41;102235.31;;;5.80;70.66
46303;BME280;32029;51.358;5.628;2023-01-29T13:12:15;102265.19;;;5.93;70.80
46303;BME280;32029;51.358;5.628;2023-01-29T13:14:53;102263.38;;;5.93;70.75
46303;BME280;32029;51.358;5.628;2023-01-29T13:17:26;102269.00;;;5.90;70.73
46303;BME280;32029;51.358;5.628;2023-01-29T13:19:59;102297.28;;;6.11;70.92
46303;BME280;32029;51.358;5.628;2023-01-29T13:22:34;102256.16;;;5.92;71.03
46303;BME280;32029;51.358;5.628;2023-01-29T13:25:03;102265.47;;;6.01;70.94
46303;BME280;32029;51.358;5.628;2023-01-29T13:27:32;102226.28;;;5.79;71.20
46303;BME280;32029;51.358;5.628;2023-01-29T13:29:59;102249.69;;;5.82;71.01
46303;BME280;32029;51.358;5.628;2023-01-29T13:32:31;102265.28;;;5.91;71.51
46303;BME280;32029;51.358;5.628;2023-01-29T13:35:01;102300.41;;;6.18;71.50
46303;BME280;32029;51.358;5.628;2023-01-29T13:37:32;102271.91;;;6.11;71.19
46303;BME280;32029;51.358;5.628;2023-01-29T13:40:01;102289.97;;;6.12;70.94
46303;BME280;32029;51.358;5.628;2023-01-29T13:42:48;102251.81;;;5.89;71.13
46303;BME280;32029;51.358;5.628;2023-01-29T13:45:24;102301.78;;;6.12;71.79
46303;BME280;32029;51.358;5.628;2023-01-29T13:48:26;102259.22;;;5.87;71.33
46303;BME280;32029;51.358;5.628;2023-01-29T13:50:55;102257.50;;;5.86;71.74
46303;BME280;32029;51.358;5.628;2023-01-29T13:53:28;102259.72;;;5.81;71.70
46303;BME280;32029;51.358;5.628;2023-01-29T13:59:04;102243.63;;;5.78;72.50
46303;BME280;32029;51.358;5.628;2023-01-29T14:06:54;102243.63;;;5.89;72.49
46303;BME280;32029;51.358;5.628;2023-01-29T14:11:57;102220.69;;;5.81;72.34
46303;BME280;32029;51.358;5.628;2023-01-29T14:17:14;102233.97;;;5.97;72.44
46303;BME280;32029;51.358;5.628;2023-01-29T14:20:15;102230.16;;;5.99;72.12
46303;BME280;32029;51.358;5.628;2023-01-29T14:22:43;102264.97;;;6.18;72.34
46303;BME280;32029;51.358;5.628;2023-01-29T14:25:23;102249.63;;;6.06;72.36
46303;BME280;32029;51.358;5.628;2023-01-29T14:27:53;102262.25;;;6.18;72.37
46303;BME280;32029;51.358;5.628;2023-01-29T14:30:21;102229.53;;;5.96;72.24
46303;BME280;32029;51.358;5.628;2023-01-29T14:32:49;102214.38;;;5.80;72.28
46303;BME280;32029;51.358;5.628;2023-01-29T14:35:19;102219.34;;;5.86;72.64
46303;BME280;32029;51.358;5.628;2023-01-29T14:37:51;102247.59;;;5.97;72.73
46303;BME280;32029;51.358;5.628;2023-01-29T14:43:02;102250.47;;;6.18;72.88
46303;BME280;32029;51.358;5.628;2023-01-29T14:45:30;102237.34;;;6.23;73.09
46303;BME280;32029;51.358;5.628;2023-01-29T14:53:22;102133.66;;;5.90;72.53
46303;BME280;32029;51.358;5.628;2023-01-29T14:58:41;102158.31;;;6.11;72.18
46303;BME280;32029;51.358;5.628;2023-01-29T15:01:28;102204.47;;;6.35;72.52
46303;BME280;32029;51.358;5.628;2023-01-29T15:04:14;102134.16;;;5.96;72.26
46303;BME280;32029;51.358;5.628;2023-01-29T15:06:46;102245.94;;;6.73;72.38
46303;BME280;32029;51.358;5.628;2023-01-29T15:09:41;102212.50;;;6.59;72.08
46303;BME280;32029;51.358;5.628;2023-01-29T15:12:30;102236.13;;;6.70;71.84
46303;BME280;32029;51.358;5.628;2023-01-29T15:15:20;102220.53;;;6.72;72.13
46303;BME280;32029;51.358;5.628;2023-01-29T15:18:16;102216.78;;;6.73;72.62
46303;BME280;32029;51.358;5.628;2023-01-29T15:20:46;102210.09;;;6.77;72.46
46303;BME280;32029;51.358;5.628;2023-01-29T15:23:26;102112.19;;;6.20;72.03
46303;BME280;32029;51.358;5.628;2023-01-29T15:25:55;102134.34;;;6.37;72.00
46303;BME280;32029;51.358;5.628;2023-01-29T15:28:25;102215.25;;;6.92;72.11
46303;BME280;32029;51.358;5.628;2023-01-29T15:30:55;102206.22;;;6.91;71.85
46303;BME280;32029;51.358;5.628;2023-01-29T15:33:23;102210.31;;;6.85;71.93
46303;BME280;32029;51.358;5.628;2023-01-29T15:36:00;102193.47;;;6.80;72.02
46303;BME280;32029;51.358;5.628;2023-01-29T15:38:28;102162.41;;;6.60;71.96
46303;BME280;32029;51.358;5.628;2023-01-29T15:40:58;102156.16;;;6.70;71.87
46303;BME280;32029;51.358;5.628;2023-01-29T15:43:29;102208.66;;;6.94;71.88
46303;BME280;32029;51.358;5.628;2023-01-29T15:45:59;102139.13;;;6.56;71.57
46303;BME280;32029;51.358;5.628;2023-01-29T15:48:32;102207.06;;;6.92;71.62
46303;BME280;32029;51.358;5.628;2023-01-29T15:51:05;102204.72;;;6.87;72.12
46303;BME280;32029;51.358;5.628;2023-01-29T15:53:47;102115.03;;;6.29;71.55
46303;BME280;32029;51.358;5.628;2023-01-29T15:56:18;102160.53;;;6.61;72.22
46303;BME280;32029;51.358;5.628;2023-01-29T15:58:48;102199.16;;;6.77;71.99
46303;BME280;32029;51.358;5.628;2023-01-29T16:01:16;102200.28;;;6.75;72.29